Time;durP1;ratioP1;P1;durP2;ratioP2;P2;SDS_P1;SDS_P2;PMS_P1;PMS_P2;Temp;Humidity;BMP_temperature;BMP_pressure;BME280_temperature;BME280_humidity;BME280_pressure;Samples;Min_cycle;Max_cycle;Signal;HPM_P1;HPM_P2
2022/03/08 00:02:05;;;;;;;30.83;17.63;;;;;;;;;;10281626;28;20042;-70
2022/03/08 00:07:06;;;;;;;27.73;15.77;;;;;;;;;;10297404;28;20282;-70
2022/03/08 00:12:07;;;;;;;36.63;20.60;;;;;;;;;;10298429;28;20031;-70
2022/03/08 00:17:07;;;;;;;35.47;17.77;;;;;;;;;;10284354;28;20089;-68
2022/03/08 00:22:08;;;;;;;39.93;19.63;;;;;;;;;;10285042;28;20113;-70
2022/03/08 00:27:08;;;;;;;34.37;16.43;;;;;;;;;;10283472;28;20023;-69
2022/03/08 00:32:08;;;;;;;31.05;16.77;;;;;;;;;;10300452;28;20393;-70
2022/03/08 00:37:09;;;;;;;36.00;18.02;;;;;;;;;;10266106;28;20037;-70
2022/03/08 00:42:11;;;;;;;31.88;16.17;;;;;;;;;;10285277;28;20380;-73
2022/03/08 00:47:12;;;;;;;31.70;17.20;;;;;;;;;;10283447;28;20046;-71
2022/03/08 00:52:12;;;;;;;32.13;17.57;;;;;;;;;;10298981;28;20026;-72
2022/03/08 00:57:14;;;;;;;34.65;16.45;;;;;;;;;;10298528;28;20047;-71
2022/03/08 01:02:14;;;;;;;29.10;18.40;;;;;;;;;;10284035;28;20114;-73
2022/03/08 01:07:15;;;;;;;35.40;17.03;;;;;;;;;;10281170;28;20037;-69
2022/03/08 01:12:16;;;;;;;31.15;16.73;;;;;;;;;;10299076;28;20054;-70
2022/03/08 01:17:16;;;;;;;29.27;17.38;;;;;;;;;;10298459;28;20449;-75
2022/03/08 01:22:16;;;;;;;31.40;16.53;;;;;;;;;;10298985;28;20046;-71
2022/03/08 01:27:17;;;;;;;33.17;16.67;;;;;;;;;;10282890;28;20031;-72
2022/03/08 01:32:17;;;;;;;24.97;14.10;;;;;;;;;;10299130;28;20038;-73
2022/03/08 01:37:18;;;;;;;31.50;16.20;;;;;;;;;;10284265;28;20042;-71
2022/03/08 01:42:21;;;;;;;28.50;14.90;;;;;;;;;;10298800;28;20050;-71
2022/03/08 01:47:22;;;;;;;31.55;17.48;;;;;;;;;;10298442;28;20065;-73
2022/03/08 01:52:23;;;;;;;37.65;18.85;;;;;;;;;;10299021;28;20035;-77
2022/03/08 01:57:25;;;;;;;34.38;18.30;;;;;;;;;;10298655;28;20122;-72
2022/03/08 02:02:25;;;;;;;43.17;17.17;;;;;;;;;;10298285;28;20027;-70
2022/03/08 02:07:26;;;;;;;44.13;19.52;;;;;;;;;;10298423;28;20034;-71
2022/03/08 02:12:26;;;;;;;32.83;17.45;;;;;;;;;;10298228;28;20038;-71
2022/03/08 02:17:26;;;;;;;34.42;18.42;;;;;;;;;;10298202;28;20058;-73
2022/03/08 02:22:26;;;;;;;41.17;19.58;;;;;;;;;;10298177;28;20026;-74
2022/03/08 02:27:27;;;;;;;40.15;20.17;;;;;;;;;;10298344;28;20030;-74
2022/03/08 02:32:27;;;;;;;43.60;21.53;;;;;;;;;;10282583;28;20118;-70
2022/03/08 02:37:35;;;;;;;36.88;19.13;;;;;;;;;;10288860;28;20811;-71
2022/03/08 02:42:35;;;;;;;;;;;;;;;;;;10290264;28;20055;-71
2022/03/08 02:47:36;;;;;;;39.58;20.77;;;;;;;;;;10288215;28;20476;-69
2022/03/08 02:52:38;;;;;;;39.45;21.00;;;;;;;;;;10288385;28;20018;-69
2022/03/08 02:57:39;;;;;;;39.28;20.85;;;;;;;;;;10288871;28;20061;-72
2022/03/08 03:02:40;;;;;;;37.60;19.52;;;;;;;;;;10288044;28;20677;-71
2022/03/08 03:07:40;;;;;;;43.97;21.73;;;;;;;;;;10303228;28;20040;-72
2022/03/08 03:12:40;;;;;;;44.40;21.70;;;;;;;;;;10303874;28;20521;-71
2022/03/08 03:17:41;;;;;;;40.37;22.17;;;;;;;;;;10287292;28;20039;-77
2022/03/08 03:22:42;;;;;;;44.38;23.55;;;;;;;;;;10303493;28;20050;-71
2022/03/08 03:27:43;;;;;;;39.97;20.60;;;;;;;;;;10290573;28;20038;-77
2022/03/08 03:32:43;;;;;;;37.45;19.98;;;;;;;;;;10302870;28;20263;-71
2022/03/08 03:37:44;;;;;;;43.60;22.52;;;;;;;;;;10288450;28;20027;-72
2022/03/08 03:42:44;;;;;;;38.70;20.50;;;;;;;;;;10302593;28;20176;-71
2022/03/08 03:47:45;;;;;;;42.45;23.02;;;;;;;;;;10301447;28;20076;-74
2022/03/08 03:52:45;;;;;;;39.65;21.98;;;;;;;;;;10303144;28;20231;-72
2022/03/08 03:57:45;;;;;;;40.80;24.73;;;;;;;;;;10287372;28;20413;-71
2022/03/08 04:02:45;;;;;;;44.07;27.87;;;;;;;;;;10286655;28;20563;-71
2022/03/08 04:07:46;;;;;;;42.22;22.13;;;;;;;;;;10285326;28;20023;-71
2022/03/08 04:12:46;;;;;;;39.00;21.17;;;;;;;;;;10285193;28;20181;-77
2022/03/08 04:17:46;;;;;;;44.60;21.73;;;;;;;;;;10301867;28;20070;-72
2022/03/08 04:22:47;;;;;;;44.90;25.92;;;;;;;;;;10301387;28;20543;-71
2022/03/08 04:27:47;;;;;;;49.03;28.42;;;;;;;;;;10286103;28;20042;-74
2022/03/08 04:32:50;;;;;;;45.97;23.33;;;;;;;;;;10301115;28;20058;-72
2022/03/08 04:37:50;;;;;;;51.50;24.90;;;;;;;;;;10285060;28;20514;-70
2022/03/08 04:42:51;;;;;;;47.57;24.77;;;;;;;;;;10283838;28;20099;-71
2022/03/08 04:47:51;;;;;;;49.10;29.05;;;;;;;;;;10283893;28;20278;-70
2022/03/08 04:52:51;;;;;;;53.78;27.42;;;;;;;;;;10283176;28;20027;-70
2022/03/08 04:57:52;;;;;;;53.60;25.53;;;;;;;;;;10283141;28;20464;-73
2022/03/08 05:02:52;;;;;;;51.72;27.17;;;;;;;;;;10277885;28;20277;-70
2022/03/08 05:07:52;;;;;;;46.07;25.07;;;;;;;;;;10281634;28;20034;-71
2022/03/08 05:12:53;;;;;;;49.47;26.25;;;;;;;;;;10272001;28;20377;-70
2022/03/08 05:17:53;;;;;;;53.83;27.92;;;;;;;;;;10279054;28;20517;-74
2022/03/08 05:22:53;;;;;;;56.45;30.15;;;;;;;;;;10280426;28;20038;-73
2022/03/08 05:27:54;;;;;;;62.67;29.05;;;;;;;;;;10269939;28;20039;-74
2022/03/08 05:32:54;;;;;;;54.00;29.10;;;;;;;;;;10280463;28;20027;-74
2022/03/08 05:37:55;;;;;;;50.80;26.77;;;;;;;;;;10294971;28;20863;-71
2022/03/08 05:42:55;;;;;;;52.42;30.58;;;;;;;;;;10282216;28;20101;-78
2022/03/08 05:47:55;;;;;;;52.60;27.40;;;;;;;;;;10280459;28;20037;-70
2022/03/08 05:52:56;;;;;;;48.95;25.45;;;;;;;;;;10296790;28;20274;-74
2022/03/08 05:57:56;;;;;;;49.17;26.38;;;;;;;;;;10277917;28;20035;-71
2022/03/08 06:02:56;;;;;;;51.63;25.63;;;;;;;;;;10278790;28;20413;-71
2022/03/08 06:07:56;;;;;;;46.35;22.88;;;;;;;;;;10281987;28;20027;-70
2022/03/08 06:12:57;;;;;;;45.28;23.95;;;;;;;;;;10287191;28;20081;-72
2022/03/08 06:17:57;;;;;;;52.00;26.38;;;;;;;;;;10289162;28;20042;-76
2022/03/08 06:22:57;;;;;;;44.87;24.23;;;;;;;;;;10289068;28;20030;-74
2022/03/08 06:27:58;;;;;;;44.67;25.20;;;;;;;;;;10303523;28;20401;-72
2022/03/08 06:32:58;;;;;;;49.50;26.47;;;;;;;;;;10303543;28;20038;-71
2022/03/08 06:37:59;;;;;;;46.17;22.83;;;;;;;;;;10302367;28;20416;-74
2022/03/08 06:42:59;;;;;;;50.20;25.35;;;;;;;;;;10288290;28;20352;-74
2022/03/08 06:47:59;;;;;;;46.03;24.88;;;;;;;;;;10301659;28;20030;-73
2022/03/08 06:53:00;;;;;;;49.33;23.77;;;;;;;;;;10302444;28;20753;-73
2022/03/08 06:58:01;;;;;;;45.65;23.00;;;;;;;;;;10287768;28;20027;-75
2022/03/08 07:03:01;;;;;;;56.08;27.38;;;;;;;;;;10286227;28;20034;-76
2022/03/08 07:08:01;;;;;;;53.77;27.37;;;;;;;;;;10286511;28;20027;-75
2022/03/08 07:13:02;;;;;;;47.97;26.95;;;;;;;;;;10302587;28;20306;-72
2022/03/08 07:18:02;;;;;;;53.30;28.30;;;;;;;;;;10285775;28;20031;-71
2022/03/08 07:23:03;;;;;;;52.60;26.40;;;;;;;;;;10301019;28;20039;-70
2022/03/08 07:28:03;;;;;;;52.30;25.15;;;;;;;;;;10302526;28;20031;-75
2022/03/08 07:33:03;;;;;;;44.00;23.00;;;;;;;;;;10288358;28;20409;-71
2022/03/08 07:38:04;;;;;;;49.65;23.75;;;;;;;;;;10284799;28;20034;-70
2022/03/08 07:43:04;;;;;;;44.03;22.92;;;;;;;;;;10287617;28;20053;-71
2022/03/08 07:48:05;;;;;;;52.45;25.08;;;;;;;;;;10286107;28;20074;-75
2022/03/08 07:53:06;;;;;;;43.63;21.73;;;;;;;;;;10284900;28;20056;-75
2022/03/08 07:58:11;;;;;;;40.95;22.65;;;;;;;;;;10285343;28;20527;-76
2022/03/08 08:03:12;;;;;;;38.25;19.73;;;;;;;;;;10299800;28;20068;-73
2022/03/08 08:08:12;;;;;;;33.60;17.60;;;;;;;;;;10284337;28;20118;-75
2022/03/08 08:13:13;;;;;;;37.78;20.48;;;;;;;;;;10286118;28;20078;-74
2022/03/08 08:18:13;;;;;;;35.73;20.03;;;;;;;;;;10284011;28;20133;-75
2022/03/08 08:23:13;;;;;;;39.27;21.33;;;;;;;;;;10282939;28;20022;-72
2022/03/08 08:28:14;;;;;;;37.17;19.17;;;;;;;;;;10284771;28;20293;-74
2022/03/08 08:33:17;;;;;;;35.63;19.97;;;;;;;;;;10284917;28;20270;-73
2022/03/08 08:38:18;;;;;;;36.30;18.30;;;;;;;;;;10300187;28;20018;-75
2022/03/08 08:43:18;;;;;;;35.22;20.55;;;;;;;;;;10299601;28;20026;-71
2022/03/08 08:48:19;;;;;;;38.17;19.98;;;;;;;;;;10282504;28;20146;-72
2022/03/08 08:53:20;;;;;;;34.80;18.05;;;;;;;;;;10289668;28;20030;-71
2022/03/08 08:58:20;;;;;;;42.33;23.87;;;;;;;;;;10282533;28;20455;-71
2022/03/08 09:03:20;;;;;;;43.40;19.80;;;;;;;;;;10281636;28;20466;-71
2022/03/08 09:08:24;;;;;;;36.88;19.58;;;;;;;;;;10283166;28;20472;-71
2022/03/08 09:13:24;;;;;;;40.58;19.65;;;;;;;;;;10297981;28;20134;-72
2022/03/08 09:18:25;;;;;;;39.75;20.40;;;;;;;;;;10298098;28;20064;-71
2022/03/08 09:23:25;;;;;;;42.07;21.93;;;;;;;;;;10297729;28;20039;-68
2022/03/08 09:28:25;;;;;;;47.95;24.15;;;;;;;;;;10280614;28;20023;-73
2022/03/08 09:33:26;;;;;;;42.80;21.35;;;;;;;;;;10283199;28;20037;-71
2022/03/08 09:38:26;;;;;;;44.50;20.88;;;;;;;;;;10281513;28;20517;-72
2022/03/08 09:43:27;;;;;;;43.07;22.30;;;;;;;;;;10284014;28;20046;-75
2022/03/08 09:48:28;;;;;;;52.15;24.42;;;;;;;;;;10290251;28;20281;-75
2022/03/08 09:53:29;;;;;;;41.50;21.55;;;;;;;;;;10289098;28;20473;-76
2022/03/08 09:58:33;;;;;;;41.15;20.80;;;;;;;;;;10289082;28;20053;-73
2022/03/08 10:03:42;;;;;;;43.55;20.45;;;;;;;;;;10305902;28;20540;-73
2022/03/08 10:08:42;;;;;;;51.13;20.75;;;;;;;;;;10303995;28;20042;-73
2022/03/08 10:13:48;;;;;;;46.55;21.83;;;;;;;;;;10287987;28;20050;-71
2022/03/08 10:18:50;;;;;;;41.30;20.70;;;;;;;;;;10288229;28;20031;-69
2022/03/08 10:23:50;;;;;;;43.90;22.60;;;;;;;;;;10289156;28;20497;-70
2022/03/08 10:28:52;;;;;;;45.25;21.73;;;;;;;;;;10303103;28;20027;-75
2022/03/08 10:34:01;;;;;;;54.28;28.67;;;;;;;;;;10288948;28;20026;-71
2022/03/08 10:39:05;;;;;;;61.65;26.60;;;;;;;;;;10287712;28;20073;-71
2022/03/08 10:44:05;;;;;;;44.60;22.23;;;;;;;;;;10288414;28;20023;-71
2022/03/08 10:49:10;;;;;;;41.58;18.30;;;;;;;;;;10288057;28;20030;-70
2022/03/08 10:54:12;;;;;;;44.80;21.80;;;;;;;;;;10285887;28;20019;-71
2022/03/08 10:59:14;;;;;;;51.90;25.13;;;;;;;;;;10286568;28;20026;-72
2022/03/08 11:04:19;;;;;;;47.25;21.58;;;;;;;;;;10303463;28;20023;-71
2022/03/08 11:09:22;;;;;;;44.92;21.38;;;;;;;;;;10286013;28;20441;-74
2022/03/08 11:14:22;;;;;;;47.75;24.05;;;;;;;;;;10286488;28;20189;-72
2022/03/08 11:19:26;;;;;;;48.53;23.42;;;;;;;;;;10269483;28;20085;-72
2022/03/08 11:24:26;;;;;;;49.53;23.10;;;;;;;;;;10287630;28;20031;-72
2022/03/08 11:29:28;;;;;;;41.72;21.65;;;;;;;;;;10285700;28;20031;-75
2022/03/08 11:34:39;;;;;;;48.65;22.48;;;;;;;;;;10284422;28;20015;-71
2022/03/08 11:39:43;;;;;;;50.42;24.40;;;;;;;;;;10286271;28;20086;-70
2022/03/08 11:44:55;;;;;;;38.80;21.98;;;;;;;;;;10286124;28;20037;-72
2022/03/08 11:49:56;;;;;;;47.22;25.30;;;;;;;;;;10284343;28;20027;-75
2022/03/08 11:55:06;;;;;;;47.28;24.38;;;;;;;;;;10301337;28;20019;-72
2022/03/08 12:00:18;;;;;;;50.85;22.92;;;;;;;;;;10284276;28;20563;-75
2022/03/08 12:05:51;;;;;;;53.35;22.63;;;;;;;;;;10283086;28;20126;-75
2022/03/08 12:11:00;;;;;;;44.45;23.77;;;;;;;;;;10257794;28;20088;-71
2022/03/08 12:16:06;;;;;;;54.05;23.08;;;;;;;;;;10299978;28;20085;-71
2022/03/08 12:21:22;;;;;;;49.47;24.95;;;;;;;;;;10283881;28;20557;-72
2022/03/08 12:26:23;;;;;;;49.97;23.27;;;;;;;;;;10283180;28;20368;-72
2022/03/08 12:31:23;;;;;;;47.00;22.95;;;;;;;;;;10282675;28;20027;-71
2022/03/08 12:36:26;;;;;;;49.88;24.27;;;;;;;;;;10282804;28;20405;-72
2022/03/08 12:41:27;;;;;;;45.78;22.35;;;;;;;;;;10282341;28;20440;-72
2022/03/08 12:46:28;;;;;;;51.20;23.30;;;;;;;;;;10281914;28;20037;-75
2022/03/08 12:51:28;;;;;;;53.65;24.50;;;;;;;;;;10280826;28;20029;-73
2022/03/08 12:56:30;;;;;;;46.50;19.33;;;;;;;;;;10281705;28;20023;-75
2022/03/08 13:01:30;;;;;;;46.63;21.55;;;;;;;;;;10281064;28;20122;-71
2022/03/08 13:06:30;;;;;;;50.55;25.08;;;;;;;;;;10281104;28;20037;-75
2022/03/08 13:11:36;;;;;;;48.37;25.47;;;;;;;;;;10292983;28;20117;-71
2022/03/08 13:16:37;;;;;;;55.40;28.75;;;;;;;;;;10291482;28;20133;-74
2022/03/08 13:21:37;;;;;;;51.75;23.95;;;;;;;;;;10282383;28;20482;-73
2022/03/08 13:26:50;;;;;;;55.42;26.60;;;;;;;;;;10281684;28;20022;-73
2022/03/08 13:31:50;;;;;;;52.95;26.67;;;;;;;;;;10282208;28;20038;-70
2022/03/08 13:36:57;;;;;;;50.90;21.37;;;;;;;;;;10280083;28;20023;-73
2022/03/08 13:41:57;;;;;;;49.47;23.80;;;;;;;;;;10293941;28;20530;-71
2022/03/08 13:46:57;;;;;;;47.90;24.40;;;;;;;;;;10293430;28;20077;-75
2022/03/08 13:51:59;;;;;;;52.17;23.42;;;;;;;;;;10293943;28;20396;-71
2022/03/08 13:57:03;;;;;;;51.25;22.70;;;;;;;;;;10280959;28;20031;-72
2022/03/08 14:02:14;;;;;;;56.67;25.17;;;;;;;;;;10295923;28;20035;-71
2022/03/08 14:07:19;;;;;;;58.22;27.02;;;;;;;;;;10296001;28;20027;-71
2022/03/08 14:12:19;;;;;;;51.45;26.48;;;;;;;;;;10295446;28;20484;-71
2022/03/08 14:17:29;;;;;;;57.70;28.75;;;;;;;;;;10296845;28;20039;-71
2022/03/08 14:22:30;;;;;;;60.95;29.38;;;;;;;;;;10280669;28;20563;-74
2022/03/08 14:27:30;;;;;;;55.25;27.23;;;;;;;;;;10294936;28;20027;-71
2022/03/08 14:32:32;;;;;;;60.88;29.00;;;;;;;;;;10302780;28;20404;-73
2022/03/08 14:37:32;;;;;;;56.63;29.23;;;;;;;;;;10301838;28;20030;-74
2022/03/08 14:42:36;;;;;;;53.58;28.67;;;;;;;;;;10288166;28;20038;-72
2022/03/08 14:47:38;;;;;;;61.13;31.83;;;;;;;;;;10284381;28;20027;-74
2022/03/08 14:52:38;;;;;;;57.78;31.00;;;;;;;;;;10304290;28;20113;-73
2022/03/08 14:57:39;;;;;;;54.17;28.42;;;;;;;;;;10285563;28;20030;-75
2022/03/08 15:02:39;;;;;;;54.72;28.70;;;;;;;;;;10282854;28;20023;-73
2022/03/08 15:07:40;;;;;;;50.73;26.90;;;;;;;;;;10286673;28;20030;-74
2022/03/08 15:12:40;;;;;;;50.03;26.42;;;;;;;;;;10291588;28;20166;-73
2022/03/08 15:17:40;;;;;;;57.60;32.03;;;;;;;;;;10284074;28;20026;-70
2022/03/08 15:22:42;;;;;;;57.50;30.25;;;;;;;;;;10285732;28;20030;-73
2022/03/08 15:27:43;;;;;;;56.10;27.83;;;;;;;;;;10284869;28;20189;-73
2022/03/08 15:32:43;;;;;;;63.80;31.40;;;;;;;;;;10283560;28;20034;-70
2022/03/08 15:37:43;;;;;;;57.10;31.50;;;;;;;;;;10261002;28;20337;-75
2022/03/08 15:42:43;;;;;;;61.30;30.83;;;;;;;;;;10261956;28;20081;-72
2022/03/08 15:47:44;;;;;;;54.50;26.80;;;;;;;;;;10282176;28;20023;-70
2022/03/08 15:52:44;;;;;;;61.35;32.83;;;;;;;;;;10284113;28;20494;-69
2022/03/08 15:57:44;;;;;;;61.88;29.15;;;;;;;;;;10285657;28;20775;-75
2022/03/08 16:02:45;;;;;;;56.30;25.75;;;;;;;;;;10298101;28;20034;-70
2022/03/08 16:07:45;;;;;;;61.15;29.77;;;;;;;;;;10282679;28;20069;-70
2022/03/08 16:12:45;;;;;;;61.30;32.87;;;;;;;;;;10275428;28;20051;-73
2022/03/08 16:17:46;;;;;;;55.60;31.27;;;;;;;;;;10273303;28;20118;-70
2022/03/08 16:22:46;;;;;;;43.95;23.20;;;;;;;;;;10293093;28;20085;-71
2022/03/08 16:27:46;;;;;;;44.25;22.20;;;;;;;;;;10279285;28;20043;-74
2022/03/08 16:32:47;;;;;;;52.50;29.33;;;;;;;;;;10280804;28;20425;-71
2022/03/08 16:37:47;;;;;;;51.55;26.67;;;;;;;;;;10297729;28;20031;-70
2022/03/08 16:42:47;;;;;;;53.27;29.77;;;;;;;;;;10299017;28;20033;-72
2022/03/08 16:47:49;;;;;;;53.15;29.90;;;;;;;;;;10277923;28;20034;-72
2022/03/08 16:52:49;;;;;;;54.75;28.75;;;;;;;;;;10291269;28;20527;-75
2022/03/08 16:57:50;;;;;;;59.63;31.13;;;;;;;;;;10290410;28;20077;-71
2022/03/08 17:02:50;;;;;;;64.87;30.60;;;;;;;;;;10280799;28;20130;-75
2022/03/08 17:07:51;;;;;;;61.63;31.92;;;;;;;;;;10281280;28;20402;-70
2022/03/08 17:12:51;;;;;;;56.58;28.65;;;;;;;;;;10289863;28;20043;-71
2022/03/08 17:17:51;;;;;;;53.25;27.75;;;;;;;;;;10290244;28;20042;-70
2022/03/08 17:22:52;;;;;;;50.47;25.60;;;;;;;;;;10293483;28;20084;-73
2022/03/08 17:27:52;;;;;;;56.78;26.52;;;;;;;;;;10282053;28;20034;-75
2022/03/08 17:32:58;;;;;;;55.75;31.35;;;;;;;;;;10299020;28;20023;-80
2022/03/08 17:37:59;;;;;;;72.88;37.60;;;;;;;;;;10283195;28;20031;-78
2022/03/08 17:43:00;;;;;;;57.03;28.98;;;;;;;;;;10283458;28;20122;-70
2022/03/08 17:48:00;;;;;;;60.50;31.13;;;;;;;;;;10285251;28;20579;-70
2022/03/08 17:53:00;;;;;;;59.00;30.35;;;;;;;;;;10282904;28;20027;-71
2022/03/08 17:58:00;;;;;;;63.43;40.60;;;;;;;;;;10270334;28;20034;-70
2022/03/08 18:03:01;;;;;;;53.17;33.55;;;;;;;;;;10292699;28;20569;-70
2022/03/08 18:08:01;;;;;;;65.57;30.13;;;;;;;;;;10288633;28;20460;-69
2022/03/08 18:13:02;;;;;;;59.90;29.98;;;;;;;;;;10301608;28;20138;-73
2022/03/08 18:18:02;;;;;;;59.05;32.13;;;;;;;;;;10284494;28;20698;-71
2022/03/08 18:23:02;;;;;;;55.37;26.87;;;;;;;;;;10262963;28;20045;-70
2022/03/08 18:28:03;;;;;;;48.92;29.27;;;;;;;;;;10284080;28;20121;-74
2022/03/08 18:33:05;;;;;;;62.60;33.40;;;;;;;;;;10300833;28;20025;-72
2022/03/08 18:38:05;;;;;;;59.13;38.05;;;;;;;;;;10298822;28;20070;-71
2022/03/08 18:43:06;;;;;;;47.33;27.05;;;;;;;;;;10285523;28;20117;-71
2022/03/08 18:48:06;;;;;;;54.58;26.08;;;;;;;;;;10284957;28;20030;-71
2022/03/08 18:53:06;;;;;;;58.03;30.52;;;;;;;;;;10297209;28;20468;-70
2022/03/08 18:58:06;;;;;;;45.70;24.35;;;;;;;;;;10282830;28;20417;-70
2022/03/08 19:03:07;;;;;;;51.00;26.90;;;;;;;;;;10300352;28;20049;-71
2022/03/08 19:08:08;;;;;;;51.80;30.70;;;;;;;;;;10299564;28;20088;-75
2022/03/08 19:13:09;;;;;;;56.30;32.00;;;;;;;;;;10298232;28;20047;-72
2022/03/08 19:18:09;;;;;;;54.38;32.40;;;;;;;;;;10286428;28;20050;-71
2022/03/08 19:23:10;;;;;;;50.30;35.47;;;;;;;;;;10283976;28;20042;-70
2022/03/08 19:28:13;;;;;;;63.55;35.88;;;;;;;;;;10293713;28;20421;-70
2022/03/08 19:33:14;;;;;;;51.97;32.47;;;;;;;;;;10285193;28;20038;-71
2022/03/08 19:38:14;;;;;;;54.17;32.15;;;;;;;;;;10299029;28;20031;-70
2022/03/08 19:43:15;;;;;;;55.63;33.83;;;;;;;;;;10281136;28;20023;-71
2022/03/08 19:48:16;;;;;;;51.15;30.95;;;;;;;;;;10280875;28;20118;-71
2022/03/08 19:53:16;;;;;;;49.42;30.42;;;;;;;;;;10282536;28;20088;-72
2022/03/08 19:58:16;;;;;;;48.85;30.52;;;;;;;;;;10297344;28;20117;-70
2022/03/08 20:03:17;;;;;;;48.42;31.00;;;;;;;;;;10297262;28;20041;-70
2022/03/08 20:08:20;;;;;;;47.13;38.35;;;;;;;;;;10281888;28;20088;-71
2022/03/08 20:13:21;;;;;;;54.03;33.25;;;;;;;;;;10288212;28;20047;-72
2022/03/08 20:18:21;;;;;;;55.08;32.22;;;;;;;;;;10294983;28;20118;-73
2022/03/08 20:23:22;;;;;;;60.35;31.20;;;;;;;;;;10281157;28;20035;-73
2022/03/08 20:28:22;;;;;;;47.22;30.63;;;;;;;;;;10295790;28;20088;-73
2022/03/08 20:33:23;;;;;;;49.15;32.35;;;;;;;;;;10281330;28;20023;-75
2022/03/08 20:38:24;;;;;;;45.67;30.60;;;;;;;;;;10278668;28;20533;-71
2022/03/08 20:43:26;;;;;;;52.80;30.67;;;;;;;;;;10279151;28;20035;-73
2022/03/08 20:48:26;;;;;;;55.10;27.27;;;;;;;;;;10283121;28;20026;-72
2022/03/08 20:53:26;;;;;;;54.15;28.73;;;;;;;;;;10283608;28;20084;-71
2022/03/08 20:58:27;;;;;;;47.78;25.33;;;;;;;;;;10283431;28;20033;-69
2022/03/08 21:03:27;;;;;;;57.25;26.40;;;;;;;;;;10271799;28;20031;-71
2022/03/08 21:08:27;;;;;;;48.92;27.00;;;;;;;;;;10272807;28;20500;-74
2022/03/08 21:13:28;;;;;;;51.30;26.05;;;;;;;;;;10243338;28;20055;-72
2022/03/08 21:18:28;;;;;;;47.70;27.47;;;;;;;;;;10271144;28;20416;-74
2022/03/08 21:23:28;;;;;;;51.03;29.60;;;;;;;;;;10262930;28;20300;-72
2022/03/08 21:28:29;;;;;;;49.00;27.20;;;;;;;;;;10282795;28;20186;-75
2022/03/08 21:33:30;;;;;;;54.97;26.48;;;;;;;;;;10284067;28;20031;-73
2022/03/08 21:38:30;;;;;;;50.90;25.65;;;;;;;;;;10298806;28;20117;-75
2022/03/08 21:43:31;;;;;;;47.42;31.50;;;;;;;;;;10291271;28;20413;-76
2022/03/08 21:48:31;;;;;;;45.72;26.98;;;;;;;;;;10290746;28;20030;-74
2022/03/08 21:53:31;;;;;;;49.63;25.63;;;;;;;;;;10290880;28;20616;-71
2022/03/08 21:58:31;;;;;;;54.13;27.57;;;;;;;;;;10290745;28;20327;-72
2022/03/08 22:03:32;;;;;;;52.88;30.63;;;;;;;;;;10290357;28;20081;-74
2022/03/08 22:08:32;;;;;;;59.00;29.58;;;;;;;;;;10306250;28;20027;-70
2022/03/08 22:13:33;;;;;;;51.42;25.30;;;;;;;;;;10291110;28;20073;-73
2022/03/08 22:18:33;;;;;;;53.33;29.83;;;;;;;;;;10306515;28;20038;-69
2022/03/08 22:23:33;;;;;;;57.20;30.17;;;;;;;;;;10288867;28;20029;-69
2022/03/08 22:28:34;;;;;;;51.22;26.75;;;;;;;;;;10289622;28;20807;-71
2022/03/08 22:33:34;;;;;;;60.93;32.50;;;;;;;;;;10290479;28;20050;-73
2022/03/08 22:38:34;;;;;;;60.85;32.35;;;;;;;;;;10288640;28;20266;-75
2022/03/08 22:43:36;;;;;;;62.97;30.45;;;;;;;;;;10288782;28;20027;-71
2022/03/08 22:48:36;;;;;;;51.55;29.40;;;;;;;;;;10289265;28;20038;-69
2022/03/08 22:53:36;;;;;;;59.20;32.10;;;;;;;;;;10288431;28;20033;-72
2022/03/08 22:58:37;;;;;;;64.25;35.58;;;;;;;;;;10305109;28;20022;-73
2022/03/08 23:03:37;;;;;;;63.70;29.40;;;;;;;;;;10304810;28;20046;-71
2022/03/08 23:08:37;;;;;;;62.27;37.73;;;;;;;;;;10288023;28;20468;-71
2022/03/08 23:13:38;;;;;;;59.63;34.13;;;;;;;;;;10303463;28;20102;-71
2022/03/08 23:18:38;;;;;;;53.27;28.07;;;;;;;;;;10288929;28;20357;-71
2022/03/08 23:23:38;;;;;;;62.53;31.50;;;;;;;;;;10287539;28;20402;-71
2022/03/08 23:28:39;;;;;;;62.97;31.80;;;;;;;;;;10287408;28;20374;-70
2022/03/08 23:33:40;;;;;;;52.03;29.23;;;;;;;;;;10303117;28;20540;-72
2022/03/08 23:38:40;;;;;;;61.22;32.88;;;;;;;;;;10286956;28;20081;-73
2022/03/08 23:43:41;;;;;;;53.45;28.50;;;;;;;;;;10287879;28;20038;-71
2022/03/08 23:48:41;;;;;;;57.72;28.55;;;;;;;;;;10286455;28;20065;-74
2022/03/08 23:53:41;;;;;;;58.50;31.98;;;;;;;;;;10302649;28;20018;-71
2022/03/08 23:58:41;;;;;;;52.50;31.35;;;;;;;;;;10286724;28;20046;-73
